Time;durP1;ratioP1;P1;durP2;ratioP2;P2;SDS_P1;SDS_P2;PMS_P1;PMS_P2;Temp;Humidity;BMP_temperature;BMP_pressure;BME280_temperature;BME280_humidity;BME280_pressure;Samples;Min_cycle;Max_cycle;Signal;HPM_P1;HPM_P2
2022/03/26 00:02:49;;;;;;;15.05;10.25;;;;;;;7.05;46.00;96695.94;10324599;28;97286;-66
2022/03/26 00:07:52;;;;;;;16.40;10.77;;;;;;;7.00;45.69;96704.06;10331667;28;98293;-66
2022/03/26 00:12:57;;;;;;;19.27;12.30;;;;;;;6.74;46.48;96694.78;10324787;28;98427;-67
2022/03/26 00:18:02;;;;;;;17.70;12.02;;;;;;;6.71;47.02;96689.78;10313906;28;96834;-66
2022/03/26 00:23:04;;;;;;;20.83;12.43;;;;;;;6.43;47.61;96699.59;10322163;28;97221;-66
2022/03/26 00:28:07;;;;;;;17.83;11.32;;;;;;;6.40;48.17;96700.66;10326219;28;98370;-66
2022/03/26 00:33:12;;;;;;;18.58;10.77;;;;;;;6.50;46.52;96710.38;10315489;28;97014;-66
2022/03/26 00:38:15;;;;;;;16.15;11.10;;;;;;;6.46;47.37;96704.56;10329482;28;96969;-66
2022/03/26 00:43:18;;;;;;;17.25;11.00;;;;;;;6.16;47.63;96707.59;10312315;28;97017;-67
2022/03/26 00:48:23;;;;;;;16.90;10.18;;;;;;;6.19;47.68;96705.63;10322317;28;97212;-66
2022/03/26 00:53:26;;;;;;;17.40;10.90;;;;;;;6.09;48.26;96704.59;10326099;28;96786;-67
2022/03/26 00:58:29;;;;;;;16.50;10.55;;;;;;;5.96;50.01;96707.22;10338500;28;97525;-66
2022/03/26 01:03:33;;;;;;;15.63;10.75;;;;;;;5.87;49.12;96702.69;10333548;28;97331;-67
2022/03/26 01:08:36;;;;;;;17.67;10.77;;;;;;;5.69;49.43;96710.81;10316010;28;98520;-66
2022/03/26 01:13:39;;;;;;;17.48;10.50;;;;;;;5.75;49.55;96713.91;10329510;28;98802;-66
2022/03/26 01:18:44;;;;;;;15.38;10.18;;;;;;;5.51;51.26;96707.72;10327266;28;97933;-66
2022/03/26 01:23:47;;;;;;;17.10;10.68;;;;;;;5.53;50.55;96700.69;10324994;28;97843;-66
2022/03/26 01:28:50;;;;;;;16.55;10.88;;;;;;;5.53;50.24;96699.81;10323333;28;97465;-67
2022/03/26 01:33:54;;;;;;;15.38;10.25;;;;;;;5.46;50.23;96708.97;10322421;28;98560;-66
2022/03/26 01:38:57;;;;;;;16.38;10.82;;;;;;;5.29;51.14;96703.16;10333284;28;97863;-67
2022/03/26 01:44:00;;;;;;;17.40;10.68;;;;;;;5.33;50.55;96704.59;10334312;28;98041;-67
2022/03/26 01:49:05;;;;;;;15.65;11.40;;;;;;;5.22;51.42;96706.25;10318167;28;96825;-67
2022/03/26 01:54:09;;;;;;;13.88;9.70;;;;;;;5.18;51.04;96700.47;10325342;28;97313;-66
2022/03/26 01:59:12;;;;;;;16.45;11.00;;;;;;;5.00;52.58;96701.72;10328499;28;96896;-67
2022/03/26 02:04:16;;;;;;;20.65;11.88;;;;;;;4.94;53.14;96698.59;10328848;28;98455;-67
2022/03/26 02:09:19;;;;;;;17.80;10.63;;;;;;;4.82;52.75;96695.97;10336804;28;97850;-66
2022/03/26 02:14:24;;;;;;;16.95;11.40;;;;;;;4.78;53.12;96687.56;10332607;28;98321;-67
2022/03/26 02:19:28;;;;;;;18.53;10.90;;;;;;;4.73;52.87;96692.22;10331656;28;97072;-66
2022/03/26 02:24:32;;;;;;;16.80;11.02;;;;;;;4.85;52.91;96682.81;10325381;28;98008;-67
2022/03/26 02:29:35;;;;;;;17.13;11.15;;;;;;;4.80;52.53;96680.53;10320942;28;96894;-67
2022/03/26 02:34:39;;;;;;;18.98;12.30;;;;;;;4.70;53.76;96679.50;10325367;28;98425;-67
2022/03/26 02:40:06;;;;;;;18.38;11.70;;;;;;;4.68;53.14;96678.75;10327809;28;97816;-66
2022/03/26 02:45:10;;;;;;;16.80;10.52;;;;;;;4.58;52.92;96681.13;10328187;28;98313;-67
2022/03/26 02:50:13;;;;;;;14.82;9.27;;;;;;;4.52;51.95;96682.34;10324244;28;97939;-67
2022/03/26 02:55:18;;;;;;;16.90;10.25;;;;;;;4.56;52.53;96681.22;10319532;28;97171;-66
2022/03/26 03:00:21;;;;;;;16.52;10.85;;;;;;;4.50;52.04;96683.38;10324483;28;99809;-66
2022/03/26 03:05:24;;;;;;;18.13;10.48;;;;;;;4.39;52.05;96687.47;10320440;28;99365;-67
2022/03/26 03:10:29;;;;;;;14.48;10.55;;;;;;;4.32;52.05;96691.41;10321820;28;99033;-66
2022/03/26 03:15:32;;;;;;;20.23;13.32;;;;;;;4.22;53.24;96686.91;10326001;28;97548;-66
2022/03/26 03:20:35;;;;;;;22.35;14.15;;;;;;;4.12;53.93;96687.47;10307956;28;97952;-66
2022/03/26 03:25:39;;;;;;;20.92;13.27;;;;;;;4.07;54.79;96681.75;10325629;28;97104;-66
2022/03/26 03:30:42;;;;;;;20.00;12.32;;;;;;;4.09;53.74;96687.69;10329742;28;96936;-66
2022/03/26 03:35:45;;;;;;;17.77;10.60;;;;;;;4.06;53.98;96687.88;10313484;28;96876;-67
2022/03/26 03:40:49;;;;;;;18.80;11.85;;;;;;;4.02;54.40;96688.97;10318096;28;98684;-67
2022/03/26 03:45:52;;;;;;;19.00;11.98;;;;;;;4.05;54.43;96688.78;10335769;28;97023;-67
2022/03/26 03:50:55;;;;;;;19.33;12.05;;;;;;;3.94;54.65;96683.47;10329997;28;97365;-67
2022/03/26 03:56:00;;;;;;;18.98;11.60;;;;;;;3.87;54.69;96692.53;10333491;28;98009;-66
2022/03/26 04:01:03;;;;;;;17.63;11.93;;;;;;;3.84;54.02;96690.97;10333920;28;96949;-66
2022/03/26 04:06:06;;;;;;;17.35;11.52;;;;;;;3.73;54.32;96696.81;10325103;28;96790;-67
2022/03/26 04:11:11;;;;;;;19.52;12.70;;;;;;;3.53;56.00;96700.59;10320382;28;98707;-66
2022/03/26 04:16:14;;;;;;;18.95;12.18;;;;;;;3.51;55.68;96693.88;10318357;28;97550;-66
2022/03/26 04:21:17;;;;;;;17.52;11.30;;;;;;;3.35;56.58;96699.13;10322320;28;98445;-66
2022/03/26 04:26:22;;;;;;;21.10;13.02;;;;;;;3.34;57.17;96710.38;10326333;28;98365;-66
2022/03/26 04:31:24;;;;;;;16.27;10.63;;;;;;;3.41;56.04;96709.94;10316222;28;96752;-67
2022/03/26 04:36:27;;;;;;;19.38;12.30;;;;;;;3.32;56.42;96705.28;10334806;28;97671;-66
2022/03/26 04:41:32;;;;;;;20.77;12.10;;;;;;;3.34;56.69;96705.22;10331489;28;97915;-67
2022/03/26 04:46:35;;;;;;;19.95;12.43;;;;;;;3.20;57.07;96709.44;10318988;28;98776;-66
2022/03/26 04:51:38;;;;;;;34.53;21.30;;;;;;;3.34;56.75;96708.59;10334756;28;98817;-66
2022/03/26 04:56:42;;;;;;;17.60;11.77;;;;;;;3.24;56.49;96710.94;10326292;28;98549;-66
2022/03/26 05:01:47;;;;;;;20.77;12.40;;;;;;;3.19;56.79;96714.72;10329021;28;96787;-68
2022/03/26 05:06:50;;;;;;;19.30;11.87;;;;;;;3.10;56.97;96710.06;10327741;28;98691;-67
2022/03/26 05:11:56;;;;;;;22.33;12.40;;;;;;;3.05;57.70;96718.09;10326498;28;97487;-66
2022/03/26 05:17:00;;;;;;;19.60;12.38;;;;;;;3.13;56.95;96726.19;10319751;28;96820;-66
2022/03/26 05:22:04;;;;;;;19.48;12.13;;;;;;;3.20;55.94;96722.34;10320769;28;98759;-66
2022/03/26 05:27:08;;;;;;;21.00;12.85;;;;;;;3.06;56.79;96720.56;10322826;28;96766;-66
2022/03/26 05:32:11;;;;;;;18.57;11.30;;;;;;;2.96;57.04;96729.78;10320594;28;96889;-66
2022/03/26 05:37:14;;;;;;;18.63;11.85;;;;;;;2.90;56.61;96735.28;10334301;28;97126;-67
2022/03/26 05:42:19;;;;;;;20.33;12.20;;;;;;;2.87;57.03;96741.47;10326351;28;97093;-66
2022/03/26 05:47:23;;;;;;;18.33;11.83;;;;;;;2.91;56.89;96751.59;10331781;28;96837;-66
2022/03/26 05:52:27;;;;;;;20.20;12.53;;;;;;;2.81;57.70;96771.94;10326350;28;96778;-66
2022/03/26 05:57:31;;;;;;;18.35;12.25;;;;;;;2.78;57.67;96770.38;10327547;28;97500;-67
2022/03/26 06:02:34;;;;;;;21.70;13.15;;;;;;;2.73;58.88;96766.38;10326684;28;100384;-66
2022/03/26 06:07:37;;;;;;;22.20;14.30;;;;;;;2.88;59.27;96779.25;10317349;28;98538;-67
2022/03/26 06:12:42;;;;;;;21.02;13.57;;;;;;;2.90;58.71;96780.91;10324640;28;98925;-66
2022/03/26 06:17:46;;;;;;;27.77;14.35;;;;;;;2.94;59.26;96778.06;10326099;28;98346;-66
2022/03/26 06:22:49;;;;;;;21.03;13.63;;;;;;;3.06;58.56;96779.94;10315586;28;97414;-66
2022/03/26 06:27:54;;;;;;;20.55;12.20;;;;;;;3.24;57.86;96790.97;10314997;28;97692;-67
2022/03/26 06:32:56;;;;;;;20.90;12.35;;;;;;;3.32;57.11;96792.28;10328440;28;96941;-66
2022/03/26 06:38:00;;;;;;;20.92;12.18;;;;;;;3.36;57.53;96799.75;10316259;28;101196;-67
2022/03/26 06:43:04;;;;;;;20.83;11.90;;;;;;;3.54;56.28;96802.19;10323722;28;97818;-66
2022/03/26 06:48:08;;;;;;;18.08;11.70;;;;;;;3.74;56.38;96809.59;10324976;28;96893;-66
2022/03/26 06:53:11;;;;;;;21.88;12.57;;;;;;;3.98;55.90;96820.19;10327895;28;100493;-66
2022/03/26 06:58:15;;;;;;;19.05;12.13;;;;;;;3.97;55.29;96815.13;10307569;28;96967;-66
2022/03/26 07:03:19;;;;;;;18.20;12.10;;;;;;;4.01;55.20;96811.44;10323985;28;97854;-66
2022/03/26 07:08:23;;;;;;;20.50;11.90;;;;;;;4.13;55.36;96823.59;10328127;28;97400;-66
2022/03/26 07:13:27;;;;;;;18.25;11.48;;;;;;;4.27;54.19;96821.94;10313923;28;99013;-67
2022/03/26 07:18:31;;;;;;;16.42;10.85;;;;;;;4.31;53.58;96826.00;10318256;28;97966;-66
2022/03/26 07:23:34;;;;;;;15.00;9.90;;;;;;;4.43;53.80;96829.56;10320913;28;97099;-66
2022/03/26 07:28:40;;;;;;;20.40;12.00;;;;;;;4.53;53.00;96820.31;10324983;28;96910;-66
2022/03/26 07:33:43;;;;;;;19.40;11.20;;;;;;;4.67;52.98;96825.44;10328162;28;96710;-67
2022/03/26 07:38:46;;;;;;;18.73;11.63;;;;;;;4.81;52.58;96824.56;10325278;28;97559;-66
2022/03/26 07:43:51;;;;;;;19.52;12.50;;;;;;;4.89;51.75;96830.09;10317868;28;97537;-67
2022/03/26 07:48:54;;;;;;;26.25;15.23;;;;;;;5.15;52.38;96830.19;10313859;28;97933;-67
2022/03/26 07:53:57;;;;;;;24.33;14.70;;;;;;;5.32;51.74;96831.66;10324584;28;96918;-67
2022/03/26 07:59:01;;;;;;;24.30;15.38;;;;;;;5.64;51.77;96837.31;10314170;28;98893;-66
2022/03/26 08:04:04;;;;;;;25.98;15.38;;;;;;;5.90;51.39;96832.13;10329949;28;96860;-66
2022/03/26 08:09:08;;;;;;;28.27;16.48;;;;;;;6.08;51.52;96841.22;10317783;28;96885;-67
2022/03/26 08:14:12;;;;;;;25.75;16.17;;;;;;;6.31;51.98;96838.81;10330575;28;98471;-67
2022/03/26 08:19:17;;;;;;;31.20;17.67;;;;;;;6.49;51.50;96833.31;10324898;28;97677;-67
2022/03/26 08:24:19;;;;;;;27.98;17.63;;;;;;;6.64;51.30;96833.06;10323960;28;97642;-67
2022/03/26 08:29:24;;;;;;;25.88;15.93;;;;;;;7.07;50.50;96836.13;10315088;28;97464;-67
2022/03/26 08:34:27;;;;;;;30.00;17.38;;;;;;;7.20;50.74;96829.09;10331005;28;96985;-67
2022/03/26 08:39:29;;;;;;;32.13;17.70;;;;;;;7.32;50.85;96829.94;10339507;28;97980;-67
2022/03/26 08:44:34;;;;;;;34.75;18.38;;;;;;;7.56;50.50;96832.50;10326478;28;97222;-67
2022/03/26 08:49:37;;;;;;;30.33;18.45;;;;;;;7.76;50.27;96829.25;10341322;28;100515;-67
2022/03/26 08:54:40;;;;;;;29.08;17.98;;;;;;;7.89;50.26;96831.78;10334700;28;98530;-67
2022/03/26 08:59:45;;;;;;;30.65;19.23;;;;;;;8.35;49.82;96833.41;10338114;28;96903;-67
2022/03/26 09:04:48;;;;;;;;;;;;;;;8.54;49.75;96835.41;10331130;28;96822;-68
2022/03/26 09:09:51;;;;;;;33.60;19.60;;;;;;;8.72;49.10;96819.28;10338485;28;97168;-67
2022/03/26 09:14:56;;;;;;;34.65;19.70;;;;;;;9.19;48.54;96819.03;10317410;28;100358;-67
2022/03/26 09:19:59;;;;;;;37.85;20.67;;;;;;;9.33;48.04;96815.28;10322807;28;97247;-67
2022/03/26 09:25:03;;;;;;;30.20;19.50;;;;;;;9.48;48.13;96822.72;10337609;28;97130;-67
2022/03/26 09:30:09;;;;;;;35.90;21.37;;;;;;;9.62;48.30;96818.13;10324956;28;98543;-67
2022/03/26 09:35:14;;;;;;;33.35;21.20;;;;;;;9.83;47.46;96818.94;10324155;28;97210;-68
2022/03/26 09:40:16;;;;;;;35.73;21.27;;;;;;;10.00;47.08;96819.31;10333061;28;97749;-68
2022/03/26 09:45:22;;;;;;;34.70;22.75;;;;;;;10.19;45.07;96816.78;10332831;28;96978;-67
2022/03/26 09:50:25;;;;;;;35.10;21.55;;;;;;;10.41;45.15;96820.19;10332711;28;96849;-67
2022/03/26 09:55:30;;;;;;;33.95;21.23;;;;;;;10.55;45.75;96816.38;10328122;28;96803;-67
2022/03/26 10:00:35;;;;;;;34.00;21.00;;;;;;;10.67;45.91;96807.47;10312456;28;97155;-68
2022/03/26 10:05:38;;;;;;;33.47;22.25;;;;;;;10.79;45.10;96803.78;10339359;28;96935;-68
2022/03/26 10:10:44;;;;;;;35.60;22.13;;;;;;;10.90;45.12;96797.59;10338414;28;96751;-67
2022/03/26 10:16:05;;;;;;;35.22;22.00;;;;;;;11.02;45.39;96794.88;10335271;28;97012;-67
2022/03/26 10:21:10;;;;;;;31.88;21.13;;;;;;;11.17;44.85;96801.31;10333281;28;96774;-68
2022/03/26 10:26:14;;;;;;;36.63;23.03;;;;;;;11.31;44.25;96792.22;10317994;28;98604;-68
2022/03/26 10:36:43;;;;;;;34.90;21.80;;;;;;;11.56;43.61;96790.88;10320539;28;98512;-67
2022/03/26 10:41:48;;;;;;;32.53;22.37;;;;;;;11.66;43.84;96791.69;10323096;28;98695;-67
2022/03/26 10:46:55;;;;;;;35.33;22.42;;;;;;;11.85;43.50;96789.97;10324168;28;97850;-67
2022/03/26 10:52:04;;;;;;;37.13;22.80;;;;;;;12.00;43.80;96788.53;10315203;28;97512;-67
2022/03/26 10:57:08;;;;;;;33.65;21.95;;;;;;;12.06;43.87;96782.75;10317184;28;97860;-67
2022/03/26 11:02:12;;;;;;;34.63;22.13;;;;;;;12.21;43.59;96784.88;10329819;28;97393;-67
2022/03/26 11:07:16;;;;;;;35.55;23.00;;;;;;;12.39;43.25;96775.31;10316645;28;97031;-67
2022/03/26 11:12:24;;;;;;;34.28;22.83;;;;;;;12.51;43.08;96781.19;10331506;28;96785;-67
2022/03/26 11:17:41;;;;;;;36.60;22.65;;;;;;;12.63;43.12;96779.16;10318960;28;96743;-67
2022/03/26 11:23:14;;;;;;;34.38;22.70;;;;;;;12.73;42.84;96763.38;10303486;28;96840;-67
2022/03/26 11:28:29;;;;;;;35.33;23.75;;;;;;;12.92;42.72;96772.94;10314191;28;97033;-68
2022/03/26 11:33:37;;;;;;;33.70;23.48;;;;;;;13.00;42.54;96773.84;10332697;28;97259;-67
2022/03/26 11:38:39;;;;;;;40.35;24.13;;;;;;;13.10;42.74;96765.91;10333693;28;97106;-67
2022/03/26 11:43:58;;;;;;;37.10;23.23;;;;;;;13.28;42.63;96754.56;10330632;28;99505;-67
2022/03/26 11:54:36;;;;;;;34.72;22.92;;;;;;;13.70;42.01;96751.25;10333405;28;97261;-67
2022/03/26 11:59:39;;;;;;;35.95;22.08;;;;;;;13.87;41.63;96741.66;10330118;28;97922;-68
2022/03/26 12:04:53;;;;;;;31.23;21.33;;;;;;;13.98;40.98;96733.50;10326528;28;96749;-67
2022/03/26 12:10:09;;;;;;;29.63;20.35;;;;;;;14.02;40.54;96728.75;10329317;28;96955;-67
2022/03/26 12:15:33;;;;;;;35.78;21.98;;;;;;;14.09;40.58;96730.63;10330434;28;98228;-67
2022/03/26 12:20:40;;;;;;;34.53;22.98;;;;;;;14.23;40.92;96729.19;10332074;28;97014;-67
2022/03/26 12:25:49;;;;;;;37.38;23.42;;;;;;;14.30;39.71;96717.06;10327072;28;97006;-68
2022/03/26 12:30:55;;;;;;;35.83;23.08;;;;;;;14.32;40.09;96709.88;10326205;28;98964;-67
2022/03/26 12:35:59;;;;;;;30.92;20.90;;;;;;;14.43;39.85;96706.13;10331058;28;96912;-67
2022/03/26 12:41:04;;;;;;;34.47;22.07;;;;;;;14.55;38.94;96699.56;10331698;28;96718;-67
2022/03/26 12:46:12;;;;;;;32.80;21.45;;;;;;;14.59;38.58;96697.44;10320043;28;96715;-68
2022/03/26 12:51:16;;;;;;;30.85;20.80;;;;;;;14.79;39.26;96691.91;10332126;28;97279;-68
2022/03/26 12:56:20;;;;;;;29.17;20.92;;;;;;;15.01;39.28;96687.78;10328779;28;96950;-68
2022/03/26 13:01:23;;;;;;;28.52;19.95;;;;;;;15.10;38.68;96677.09;10326036;28;96778;-68
2022/03/26 13:06:28;;;;;;;30.13;19.03;;;;;;;15.23;38.57;96665.25;10330829;28;97699;-68
2022/03/26 13:11:33;;;;;;;30.67;18.40;;;;;;;15.42;37.96;96669.34;10312736;28;96906;-68
2022/03/26 13:16:37;;;;;;;;;;;;;;;15.61;36.69;96668.97;10316882;28;97655;-68
2022/03/26 13:21:44;;;;;;;25.13;16.15;;;;;;;15.89;36.06;96660.66;10315039;28;97147;-68
2022/03/26 13:26:52;;;;;;;24.58;17.77;;;;;;;16.15;35.32;96649.84;10331667;28;98233;-67
2022/03/26 13:31:57;;;;;;;28.48;19.15;;;;;;;16.50;35.48;96642.41;10314594;28;98141;-67
2022/03/26 13:37:09;;;;;;;26.15;17.05;;;;;;;16.86;34.72;96636.56;10335969;28;98932;-67
2022/03/26 13:42:15;;;;;;;25.35;16.60;;;;;;;17.22;34.06;96629.84;10318566;28;96847;-68
2022/03/26 13:47:21;;;;;;;22.45;15.52;;;;;;;17.67;33.01;96620.94;10317738;28;98050;-68
2022/03/26 13:52:27;;;;;;;20.95;15.35;;;;;;;18.13;31.83;96612.78;10308776;28;96822;-68
2022/03/26 13:57:31;;;;;;;23.02;15.73;;;;;;;18.64;31.77;96606.59;10314133;28;96995;-68
2022/03/26 14:02:36;;;;;;;23.35;16.25;;;;;;;19.13;31.60;96597.03;10314951;28;97973;-68
2022/03/26 14:07:40;;;;;;;22.45;15.70;;;;;;;19.72;30.98;96602.91;10318806;28;98732;-68
2022/03/26 14:12:43;;;;;;;21.67;15.32;;;;;;;20.07;30.02;96597.56;10332718;28;97035;-67
2022/03/26 14:17:46;;;;;;;24.08;16.55;;;;;;;20.50;30.05;96590.13;10331905;28;96784;-66
2022/03/26 14:22:55;;;;;;;23.45;16.75;;;;;;;20.73;29.14;96596.91;10319108;28;96770;-66
2022/03/26 14:28:00;;;;;;;21.63;15.98;;;;;;;21.06;29.15;96580.19;10333744;28;98769;-66
2022/03/26 14:33:03;;;;;;;19.00;14.95;;;;;;;21.55;29.08;96578.88;10335009;28;96938;-66
2022/03/26 14:38:08;;;;;;;19.63;15.02;;;;;;;21.73;28.50;96578.25;10335602;28;98919;-66
2022/03/26 14:43:11;;;;;;;19.13;13.77;;;;;;;22.03;27.87;96575.03;10332802;28;97341;-66
2022/03/26 14:48:14;;;;;;;19.30;14.45;;;;;;;22.39;27.41;96569.13;10319582;28;97805;-66
2022/03/26 14:53:19;;;;;;;17.20;13.53;;;;;;;22.09;26.88;96574.19;10329914;28;96956;-66
2022/03/26 14:58:22;;;;;;;17.63;14.05;;;;;;;22.45;26.72;96570.91;10324826;28;97191;-66
2022/03/26 15:03:25;;;;;;;14.98;12.35;;;;;;;22.54;26.31;96568.84;10309889;28;97325;-66
2022/03/26 15:08:30;;;;;;;16.80;12.37;;;;;;;22.66;25.76;96573.47;10320906;28;96929;-66
2022/03/26 15:13:33;;;;;;;15.75;11.75;;;;;;;22.84;25.00;96573.56;10312524;28;96853;-66
2022/03/26 15:18:37;;;;;;;15.10;11.57;;;;;;;23.21;25.65;96576.31;10332901;28;97147;-66
2022/03/26 15:23:41;;;;;;;16.63;11.98;;;;;;;23.45;24.39;96571.19;10332968;28;96874;-67
2022/03/26 15:28:44;;;;;;;14.90;12.30;;;;;;;23.36;24.11;96574.13;10305230;28;98609;-66
2022/03/26 15:33:50;;;;;;;14.40;12.10;;;;;;;23.29;24.07;96575.22;10310068;28;96766;-66
2022/03/26 15:38:54;;;;;;;14.32;11.27;;;;;;;23.17;23.47;96564.47;10326350;28;97355;-66
2022/03/26 15:43:58;;;;;;;16.92;11.25;;;;;;;23.45;23.65;96561.34;10319878;28;98656;-66
2022/03/26 15:49:00;;;;;;;14.30;11.73;;;;;;;23.50;23.09;96566.00;10331771;28;98119;-66
2022/03/26 15:54:05;;;;;;;15.73;11.50;;;;;;;23.33;23.07;96565.78;10330413;28;96795;-66
2022/03/26 15:59:10;;;;;;;14.40;10.95;;;;;;;23.34;22.79;96562.88;10325110;28;96793;-67
2022/03/26 16:04:13;;;;;;;14.85;10.73;;;;;;;22.99;22.00;96563.38;10333290;28;98341;-66
2022/03/26 16:09:18;;;;;;;13.03;10.17;;;;;;;23.00;21.66;96556.19;10333850;28;98152;-66
2022/03/26 16:14:24;;;;;;;12.90;10.20;;;;;;;22.82;21.82;96562.28;10324258;28;97057;-66
2022/03/26 16:19:27;;;;;;;13.60;10.55;;;;;;;23.20;22.18;96569.31;10323860;28;96822;-66
2022/03/26 16:24:32;;;;;;;15.90;11.53;;;;;;;22.96;22.31;96571.81;10332501;28;102432;-67
2022/03/26 16:29:34;;;;;;;14.35;12.18;;;;;;;22.91;21.99;96576.97;10337416;28;98182;-67
2022/03/26 16:34:38;;;;;;;13.75;9.93;;;;;;;22.88;22.10;96565.94;10339814;28;96985;-67
2022/03/26 16:39:42;;;;;;;14.23;10.57;;;;;;;22.92;22.29;96565.28;10339581;28;96855;-66
2022/03/26 16:44:45;;;;;;;15.27;11.18;;;;;;;22.77;22.34;96572.78;10336854;28;97088;-67
2022/03/26 16:49:48;;;;;;;14.43;10.95;;;;;;;22.81;22.88;96577.44;10322828;28;97126;-66
2022/03/26 16:54:56;;;;;;;;;;;;;;;22.99;22.91;96573.22;10330775;28;97266;-67
2022/03/26 17:00:00;;;;;;;15.02;11.50;;;;;;;22.97;23.41;96576.09;10318299;28;98952;-66
2022/03/26 17:05:08;;;;;;;15.43;12.00;;;;;;;22.38;23.72;96577.31;10330653;28;96969;-66
2022/03/26 17:10:13;;;;;;;12.77;10.25;;;;;;;21.11;25.51;96586.50;10330224;28;96885;-66
2022/03/26 17:15:16;;;;;;;11.43;9.30;;;;;;;20.84;26.39;96583.06;10331027;28;98567;-67
2022/03/26 17:20:20;;;;;;;11.37;9.17;;;;;;;19.92;27.90;96590.59;10335288;28;97092;-66
2022/03/26 17:25:24;;;;;;;10.98;8.57;;;;;;;19.28;29.10;96583.72;10338636;28;96878;-66
2022/03/26 17:30:27;;;;;;;;;;;;;;;18.67;28.95;96577.13;10327724;28;96941;-66
2022/03/26 17:35:31;;;;;;;12.48;9.85;;;;;;;18.07;30.14;96581.81;10329743;28;97022;-66
2022/03/26 17:40:35;;;;;;;11.57;8.93;;;;;;;17.71;30.80;96582.56;10336302;28;97846;-66
2022/03/26 17:45:38;;;;;;;13.13;9.05;;;;;;;17.69;30.84;96587.22;10329921;28;97027;-66
2022/03/26 17:50:41;;;;;;;14.48;9.73;;;;;;;17.57;31.17;96588.69;10328753;28;97114;-67
2022/03/26 17:55:45;;;;;;;12.77;9.35;;;;;;;17.27;31.91;96595.78;10327273;28;97525;-66
2022/03/26 18:00:49;;;;;;;14.02;9.38;;;;;;;17.03;31.93;96595.03;10329216;28;98507;-66
2022/03/26 18:05:52;;;;;;;14.77;9.55;;;;;;;16.96;32.34;96604.66;10332577;28;97535;-67
2022/03/26 18:10:57;;;;;;;12.63;9.27;;;;;;;16.76;32.74;96609.59;10329935;28;98655;-66
2022/03/26 18:16:00;;;;;;;17.73;10.15;;;;;;;16.53;32.89;96609.59;10334747;28;98707;-65
2022/03/26 18:21:04;;;;;;;17.30;10.00;;;;;;;16.22;33.28;96613.91;10323835;28;98015;-66
2022/03/26 18:26:09;;;;;;;18.10;10.10;;;;;;;15.72;34.40;96623.06;10326455;28;96889;-65
2022/03/26 18:31:12;;;;;;;17.63;9.73;;;;;;;15.08;35.18;96625.66;10309540;28;97020;-66
2022/03/26 18:36:15;;;;;;;13.35;9.90;;;;;;;14.61;35.60;96629.75;10324814;28;98973;-66
2022/03/26 18:41:20;;;;;;;16.15;10.27;;;;;;;13.86;36.83;96630.53;10331305;28;100363;-66
2022/03/26 18:46:23;;;;;;;15.10;9.90;;;;;;;13.45;38.07;96640.88;10333894;28;97004;-66
2022/03/26 18:51:26;;;;;;;18.30;9.52;;;;;;;13.22;37.86;96645.78;10339238;28;96962;-65
2022/03/26 18:56:32;;;;;;;13.50;7.75;;;;;;;13.11;37.40;96646.88;10335401;28;96795;-65
2022/03/26 19:01:35;;;;;;;11.63;7.90;;;;;;;13.19;36.06;96646.13;10331772;28;97861;-69
2022/03/26 19:06:39;;;;;;;14.13;7.35;;;;;;;13.21;36.17;96639.72;10328471;28;96945;-65
2022/03/26 19:11:43;;;;;;;12.20;8.02;;;;;;;13.24;36.45;96651.72;10338111;28;96810;-64
2022/03/26 19:16:46;;;;;;;13.27;10.07;;;;;;;13.30;36.28;96650.28;10331522;28;96986;-65
2022/03/26 19:21:49;;;;;;;17.23;9.55;;;;;;;13.28;35.95;96658.31;10309069;28;96745;-65
2022/03/26 19:26:53;;;;;;;19.08;9.38;;;;;;;13.26;36.59;96657.63;10310719;28;96918;-65
2022/03/26 19:31:56;;;;;;;20.50;13.63;;;;;;;13.18;36.11;96661.00;10305130;28;98219;-65
2022/03/26 19:36:59;;;;;;;16.40;10.60;;;;;;;13.14;36.38;96662.31;10324847;28;99996;-65
2022/03/26 19:42:04;;;;;;;21.58;15.07;;;;;;;13.12;36.39;96666.91;10331849;28;98090;-65
2022/03/26 19:47:07;;;;;;;16.90;12.63;;;;;;;13.15;36.21;96669.22;10331579;28;97305;-65
2022/03/26 19:52:10;;;;;;;19.02;11.55;;;;;;;13.00;37.05;96670.75;10307203;28;96826;-65
2022/03/26 19:57:15;;;;;;;17.90;12.18;;;;;;;12.73;37.54;96672.44;10308836;28;96881;-65
2022/03/26 20:02:21;;;;;;;18.48;12.55;;;;;;;12.59;37.55;96683.44;10323350;28;97179;-65
2022/03/26 20:07:25;;;;;;;19.85;12.70;;;;;;;12.47;37.75;96681.06;10333717;28;96839;-65
2022/03/26 20:12:29;;;;;;;19.70;12.55;;;;;;;12.39;38.32;96688.84;10336741;28;96832;-65
2022/03/26 20:22:53;;;;;;;20.88;14.82;;;;;;;12.16;38.43;96703.31;10332633;28;97211;-65
2022/03/26 20:27:58;;;;;;;18.27;11.98;;;;;;;12.18;37.96;96707.44;10327715;28;98270;-65
2022/03/26 20:33:01;;;;;;;16.75;11.45;;;;;;;12.15;38.03;96720.00;10330141;28;96982;-65
2022/03/26 20:38:04;;;;;;;17.60;11.63;;;;;;;11.87;38.36;96725.22;10328008;28;100779;-65
2022/03/26 20:43:10;;;;;;;17.77;11.63;;;;;;;11.59;38.50;96733.03;10325833;28;98566;-65
2022/03/26 20:48:13;;;;;;;17.70;12.37;;;;;;;11.34;38.63;96747.53;10316331;28;96960;-65
2022/03/26 20:53:17;;;;;;;23.20;14.50;;;;;;;11.27;38.65;96749.84;10312952;28;97841;-65
2022/03/26 20:58:24;;;;;;;19.37;12.87;;;;;;;11.07;39.53;96753.41;10319913;28;98835;-65
2022/03/26 21:03:27;;;;;;;25.50;16.40;;;;;;;10.69;39.92;96753.28;10315085;28;100281;-65
2022/03/26 21:08:30;;;;;;;21.42;13.23;;;;;;;10.55;39.62;96758.91;10310201;28;98706;-65
2022/03/26 21:13:35;;;;;;;21.65;13.82;;;;;;;10.23;40.77;96771.19;10316768;28;98397;-65
2022/03/26 21:18:39;;;;;;;21.25;13.85;;;;;;;10.27;40.63;96776.97;10313833;28;97440;-65
2022/03/26 21:23:42;;;;;;;18.77;13.50;;;;;;;10.21;40.45;96780.94;10330756;28;96997;-65
2022/03/26 21:28:47;;;;;;;26.27;14.38;;;;;;;10.08;40.70;96776.88;10330827;28;96820;-65
2022/03/26 21:33:50;;;;;;;22.45;14.48;;;;;;;9.78;41.52;96781.97;10328271;28;96858;-65
2022/03/26 21:38:53;;;;;;;19.73;13.90;;;;;;;9.79;41.54;96782.81;10324704;28;97612;-66
2022/03/26 21:43:58;;;;;;;20.33;12.68;;;;;;;9.72;41.72;96781.69;10324122;28;102515;-65
2022/03/26 21:49:01;;;;;;;21.15;13.48;;;;;;;9.56;42.17;96785.56;10323374;28;98139;-65
2022/03/26 21:54:04;;;;;;;21.73;13.45;;;;;;;9.41;41.96;96794.63;10328273;28;96786;-63
2022/03/26 21:59:09;;;;;;;26.80;16.67;;;;;;;9.42;41.08;96789.31;10325301;28;96908;-65
2022/03/26 22:04:13;;;;;;;21.20;13.20;;;;;;;9.15;42.91;96802.00;10327804;28;96929;-65
2022/03/26 22:09:16;;;;;;;17.30;12.13;;;;;;;8.96;43.28;96797.44;10328077;28;97032;-65
2022/03/26 22:14:20;;;;;;;21.83;13.45;;;;;;;8.75;44.20;96794.78;10326346;28;97653;-66
2022/03/26 22:19:23;;;;;;;20.53;13.00;;;;;;;8.62;44.54;96811.38;10329523;28;96896;-65
2022/03/26 22:24:32;;;;;;;19.55;13.35;;;;;;;8.52;44.65;96803.47;10324591;28;100859;-65
2022/03/26 22:29:36;;;;;;;18.20;13.23;;;;;;;8.41;46.39;96810.47;10323617;28;97926;-66
2022/03/26 22:34:39;;;;;;;19.60;12.85;;;;;;;8.43;44.84;96809.41;10330088;28;98608;-66
2022/03/26 22:40:17;;;;;;;19.40;12.35;;;;;;;8.19;46.39;96812.16;10321485;28;98476;-66
2022/03/26 22:45:08;;;;;;;18.05;12.85;;;;;;;7.93;47.19;96812.38;10325757;28;98775;-66
2022/03/26 22:50:11;;;;;;;19.15;12.50;;;;;;;7.97;45.63;96813.78;10316445;28;97498;-66
2022/03/26 22:55:16;;;;;;;18.48;12.80;;;;;;;8.03;46.01;96824.66;10327502;28;97750;-66
2022/03/26 23:00:49;;;;;;;20.92;13.75;;;;;;;8.01;47.22;96823.97;10319408;28;98684;-66
2022/03/26 23:05:52;;;;;;;21.85;14.05;;;;;;;7.72;48.24;96824.41;10324296;28;97192;-66
2022/03/26 23:10:55;;;;;;;19.67;13.32;;;;;;;7.47;48.65;96825.41;10321006;28;101237;-66
2022/03/26 23:16:00;;;;;;;22.05;14.05;;;;;;;7.39;49.44;96819.00;10312468;28;98557;-66
2022/03/26 23:21:03;;;;;;;20.73;13.68;;;;;;;7.29;49.34;96827.59;10321924;28;96989;-66
2022/03/26 23:26:08;;;;;;;18.67;12.93;;;;;;;7.31;49.11;96836.13;10315984;28;97463;-66
2022/03/26 23:31:13;;;;;;;;;;;;;;;7.30;48.41;96837.03;10318981;28;97492;-66